Vegreville, Canada
Current Conditions -  °F | °C
As of 4:00 AM on Sunday 23 Nov 2014 (Local Time) from CYED Reporting Station
Overcast Overcast  
Wind Chill: 14°   Ceiling: 1600
Heat Index: 14°   Visibility: 9mi
Dew Point:   Wind: 3mph
Humidity: 79%   Direction: 310°NW
Pressure: 29.76"   Gusts: NA
Location:  53.5°N, 112.05°W
Report Text: CYED 231100Z AUTO 31003KT 9SM OVC016 M10/M13 A2976 RMK SLP119
Loading
Personal Weather Stations






























Interactive Weather Map New forecast layout! Learn more

10-Day Weather Forecast

Advertisements
Track Severe Weather on mobile